Time;durP1;ratioP1;P1;durP2;ratioP2;P2;SDS_P1;SDS_P2;PMS_P1;PMS_P2;Temp;Humidity;BMP_temperature;BMP_pressure;BME280_temperature;BME280_humidity;BME280_pressure;Samples;Min_cycle;Max_cycle;Signal;HPM_P1;HPM_P2
2022/09/15 00:00:18;;;;;;;3.35;1.60;;;;;;;17.89;66.66;100829.78;6157841;23;20013;-37
2022/09/15 00:02:44;;;;;;;3.35;1.70;;;;;;;17.88;66.67;100833.31;6174207;23;20015;-37
2022/09/15 00:05:10;;;;;;;2.63;1.42;;;;;;;17.86;66.84;100833.38;6167819;23;20732;-38
2022/09/15 00:07:36;;;;;;;4.57;1.70;;;;;;;17.84;67.32;100835.16;6147598;23;20012;-39
2022/09/15 00:10:02;;;;;;;2.83;1.50;;;;;;;17.89;67.48;100837.69;6171712;23;20005;-38
2022/09/15 00:12:28;;;;;;;4.85;1.80;;;;;;;17.95;67.59;100840.22;6151416;23;20445;-39
2022/09/15 00:14:54;;;;;;;3.38;1.52;;;;;;;18.07;67.75;100835.63;6174856;23;20367;-37
2022/09/15 00:17:19;;;;;;;3.58;1.67;;;;;;;18.18;67.54;100832.78;6154503;23;20012;-39
2022/09/15 00:19:45;;;;;;;7.13;2.90;;;;;;;18.14;66.73;100825.81;6173883;23;20087;-37
2022/09/15 00:22:10;;;;;;;4.97;2.40;;;;;;;18.30;66.48;100829.06;6156125;23;20027;-37
2022/09/15 00:24:36;;;;;;;3.95;2.13;;;;;;;18.40;66.08;100823.56;6158639;23;20023;-38
2022/09/15 00:27:02;;;;;;;4.43;2.17;;;;;;;18.46;65.80;100817.31;6168062;23;20013;-38
2022/09/15 00:29:27;;;;;;;3.75;2.20;;;;;;;18.48;65.60;100820.78;6162933;23;20036;-38
2022/09/15 00:31:52;;;;;;;3.00;2.40;;;;;;;18.48;65.22;100824.28;6170163;23;20036;-37
2022/09/15 00:34:18;;;;;;;6.18;2.72;;;;;;;18.50;65.30;100826.88;6143794;23;20040;-38
2022/09/15 00:36:43;;;;;;;4.22;2.55;;;;;;;18.53;65.29;100825.06;6166295;23;20008;-37
2022/09/15 00:39:09;;;;;;;5.28;3.08;;;;;;;18.49;65.21;100820.75;6163555;23;20975;-38
2022/09/15 00:41:37;;;;;;;5.85;2.90;;;;;;;18.59;65.06;100829.41;6168858;23;20409;-37
2022/09/15 00:44:06;;;;;;;6.22;2.80;;;;;;;18.67;64.95;100829.22;6168151;23;20108;-38
2022/09/15 00:46:38;;;;;;;5.28;3.28;;;;;;;18.69;65.26;100830.06;6151695;23;20016;-38
2022/09/15 00:49:08;;;;;;;5.35;3.20;;;;;;;18.76;65.11;100829.03;6163621;23;20013;-37
2022/09/15 00:51:42;;;;;;;6.45;3.50;;;;;;;18.77;65.02;100833.44;6169511;23;20427;-38
2022/09/15 00:54:13;;;;;;;5.70;3.65;;;;;;;18.87;64.59;100832.31;6160016;23;20124;-36
2022/09/15 00:56:40;;;;;;;5.45;3.42;;;;;;;18.89;64.55;100839.31;6166746;23;20019;-38
2022/09/15 00:59:10;;;;;;;6.53;3.60;;;;;;;18.92;63.87;100836.59;6169340;22;20024;-39
2022/09/15 01:01:37;;;;;;;4.38;3.28;;;;;;;19.00;63.65;100836.44;6157709;23;20004;-36
2022/09/15 01:04:11;;;;;;;5.90;3.42;;;;;;;19.07;63.15;100838.06;6167166;23;20559;-38
2022/09/15 01:06:42;;;;;;;7.03;3.50;;;;;;;19.07;63.12;100839.81;6162718;23;20020;-36
2022/09/15 01:09:26;;;;;;;8.18;3.45;;;;;;;19.08;63.07;100837.16;6163540;23;20047;-36
2022/09/15 01:11:52;;;;;;;6.45;2.80;;;;;;;19.03;62.83;100845.16;6163317;23;20075;-37
2022/09/15 01:14:17;;;;;;;5.82;2.80;;;;;;;19.07;62.87;100838.06;6163804;23;20016;-37
2022/09/15 01:17:00;;;;;;;6.88;3.20;;;;;;;19.01;62.79;100825.84;6168495;23;20023;-37
2022/09/15 01:19:59;;;;;;;4.50;2.70;;;;;;;18.96;62.87;100827.72;6168080;23;20012;-36
2022/09/15 01:22:31;;;;;;;4.53;3.03;;;;;;;18.91;62.89;100831.34;6157174;23;20051;-37
2022/09/15 01:25:08;;;;;;;4.57;2.60;;;;;;;18.92;63.06;100833.09;6164297;23;20091;-37
2022/09/15 01:27:36;;;;;;;6.13;2.80;;;;;;;18.92;63.14;100833.09;6169684;23;20023;-36
2022/09/15 01:30:06;;;;;;;5.20;2.78;;;;;;;18.73;63.19;100842.28;6155190;23;20012;-36
2022/09/15 01:33:11;;;;;;;6.10;2.60;;;;;;;18.89;62.46;100838.44;6163746;23;20862;-36
2022/09/15 01:35:36;;;;;;;7.90;2.30;;;;;;;19.01;61.58;100832.91;6167793;23;20021;-37
2022/09/15 01:38:18;;;;;;;7.35;2.28;;;;;;;19.19;61.09;100836.91;6176976;23;20482;-36
2022/09/15 01:40:49;;;;;;;9.77;2.03;;;;;;;19.01;60.84;100827.63;6167810;23;20027;-37
2022/09/15 01:43:17;;;;;;;6.20;1.90;;;;;;;19.16;60.29;100839.59;6169383;23;20399;-36
2022/09/15 01:45:45;;;;;;;4.43;1.52;;;;;;;19.30;59.87;100835.75;6159597;23;20009;-36
2022/09/15 01:48:10;;;;;;;4.82;1.70;;;;;;;19.11;60.46;100834.44;6159600;23;20013;-37
2022/09/15 01:50:59;;;;;;;6.90;1.83;;;;;;;19.22;60.08;100847.41;6169897;23;20059;-37
2022/09/15 01:53:25;;;;;;;5.25;1.80;;;;;;;19.29;59.83;100843.72;6168140;23;20016;-38
2022/09/15 01:55:53;;;;;;;5.45;1.67;;;;;;;19.21;59.95;100838.59;6174503;23;20009;-37
2022/09/15 01:58:19;;;;;;;3.25;1.60;;;;;;;18.93;60.47;100846.28;6142768;23;20005;-37
2022/09/15 02:00:50;;;;;;;8.32;1.88;;;;;;;18.98;60.16;100848.81;6163906;23;20439;-36
2022/09/15 02:03:43;;;;;;;5.38;1.63;;;;;;;19.01;59.93;100843.47;6174600;23;20017;-37
2022/09/15 02:06:17;;;;;;;3.85;1.40;;;;;;;19.06;60.10;100844.22;6157724;23;20016;-37
2022/09/15 02:08:51;;;;;;;4.50;1.48;;;;;;;19.01;60.43;100843.47;6174443;23;20828;-37
2022/09/15 02:11:25;;;;;;;4.97;1.77;;;;;;;18.96;60.58;100840.06;6169990;23;20023;-36
2022/09/15 02:14:21;;;;;;;4.30;1.27;;;;;;;19.04;60.22;100838.97;6159965;23;20008;-37
2022/09/15 02:16:51;;;;;;;3.97;1.55;;;;;;;19.09;60.14;100838.88;6167924;23;20048;-37
2022/09/15 02:19:16;;;;;;;5.70;1.30;;;;;;;19.12;60.02;100838.81;6171929;23;20443;-36
2022/09/15 02:22:26;;;;;;;5.13;1.33;;;;;;;19.10;60.10;100842.38;6154214;23;20016;-36
2022/09/15 02:25:06;;;;;;;4.97;1.50;;;;;;;18.94;60.02;100840.09;6109551;23;20079;-37
2022/09/15 02:27:49;;;;;;;4.20;1.55;;;;;;;18.91;60.19;100842.78;6169520;23;20075;-37
2022/09/15 02:30:18;;;;;;;4.25;1.40;;;;;;;18.90;60.03;100846.34;6158377;23;20441;-36
2022/09/15 02:32:50;;;;;;;6.28;1.42;;;;;;;18.88;60.80;100845.50;6174226;23;20435;-37
2022/09/15 02:35:16;;;;;;;3.88;1.30;;;;;;;18.90;60.59;100846.34;6169018;23;20227;-37
2022/09/15 02:37:42;;;;;;;5.15;1.55;;;;;;;18.91;61.07;100850.72;6170363;23;20527;-38
2022/09/15 02:40:08;;;;;;;2.22;1.20;;;;;;;18.88;61.62;100842.00;6154821;23;20330;-37
2022/09/15 02:42:34;;;;;;;5.60;1.25;;;;;;;18.90;61.75;100841.06;6166213;23;20016;-37
2022/09/15 02:45:00;;;;;;;3.38;1.40;;;;;;;18.83;62.66;100844.72;6160161;23;20023;-36
2022/09/15 02:47:27;;;;;;;6.18;1.55;;;;;;;18.81;62.95;100851.81;6171507;23;20016;-37
2022/09/15 02:49:53;;;;;;;4.05;1.50;;;;;;;18.87;62.84;100853.44;6149858;23;20008;-36
2022/09/15 02:52:19;;;;;;;7.28;1.63;;;;;;;18.80;63.13;100858.00;6160249;23;20019;-38
2022/09/15 02:54:44;;;;;;;7.53;1.73;;;;;;;18.72;63.64;100851.16;6170417;23;20016;-36
2022/09/15 02:57:10;;;;;;;3.63;1.50;;;;;;;18.69;63.94;100854.69;6163456;23;20056;-36
2022/09/15 03:02:19;;;;;;;4.38;1.45;;;;;;;18.74;63.53;100849.31;6142457;23;20438;-36
2022/09/15 03:04:47;;;;;;;5.10;1.77;;;;;;;18.61;64.13;100848.69;6166419;23;20044;-37
2022/09/15 03:07:12;;;;;;;3.72;1.10;;;;;;;18.58;64.18;100851.41;6171293;23;20015;-36
2022/09/15 03:09:37;;;;;;;3.03;1.20;;;;;;;18.66;63.81;100851.28;6168331;23;20008;-36
2022/09/15 03:12:07;;;;;;;2.67;1.23;;;;;;;18.61;64.24;100853.97;6158977;23;20516;-37
2022/09/15 03:14:32;;;;;;;5.15;1.50;;;;;;;18.52;64.40;100859.41;6160726;23;20044;-38
2022/09/15 03:16:59;;;;;;;3.90;1.40;;;;;;;18.46;64.44;100868.34;6164385;23;20466;-37
2022/09/15 03:19:24;;;;;;;6.45;1.60;;;;;;;18.34;64.94;100865.03;6164649;23;20172;-38
2022/09/15 03:21:50;;;;;;;3.80;1.33;;;;;;;18.38;64.76;100874.63;6167077;23;20118;-37
2022/09/15 03:24:18;;;;;;;3.22;1.42;;;;;;;18.28;64.89;100870.44;6156304;23;20021;-37
2022/09/15 03:26:43;;;;;;;2.72;1.50;;;;;;;18.39;64.65;100871.97;6163275;23;20012;-37
2022/09/15 03:29:08;;;;;;;5.15;1.40;;;;;;;18.39;64.46;100871.09;6167499;23;20040;-37
2022/09/15 03:31:34;;;;;;;3.40;1.20;;;;;;;18.32;62.81;100869.47;6161904;23;20428;-37
2022/09/15 03:33:59;;;;;;;4.30;1.50;;;;;;;18.37;61.78;100872.88;6171889;23;20004;-37
2022/09/15 03:36:24;;;;;;;3.95;1.13;;;;;;;18.42;60.82;100864.00;6129903;23;20732;-37
2022/09/15 03:38:50;;;;;;;4.85;1.30;;;;;;;18.49;60.26;100873.53;6167004;23;20051;-38
2022/09/15 03:41:15;;;;;;;5.78;1.20;;;;;;;18.58;59.94;100869.91;6164710;23;20157;-37
2022/09/15 03:43:40;;;;;;;5.63;1.63;;;;;;;18.61;59.88;100872.47;6164477;23;20389;-37
2022/09/15 03:46:08;;;;;;;3.85;1.10;;;;;;;18.61;60.30;100859.25;6157643;23;20008;-37
2022/09/15 03:48:35;;;;;;;7.22;1.42;;;;;;;18.51;61.61;100862.94;6166919;23;20005;-38
2022/09/15 03:51:06;;;;;;;3.25;1.10;;;;;;;18.54;61.76;100866.41;6161782;23;20011;-37
2022/09/15 03:53:33;;;;;;;2.42;1.10;;;;;;;18.57;61.74;100869.03;6166521;23;20015;-38
2022/09/15 03:56:20;;;;;;;2.72;1.10;;;;;;;18.59;61.66;100874.28;6158360;23;20012;-37
2022/09/15 03:58:46;;;;;;;3.25;1.08;;;;;;;18.56;62.07;100866.41;6164077;23;20020;-36
2022/09/15 04:01:11;;;;;;;2.90;1.23;;;;;;;18.49;63.24;100872.66;6156407;23;20206;-37
2022/09/15 04:03:37;;;;;;;4.03;1.30;;;;;;;18.50;62.92;100875.28;6172365;23;20104;-36
2022/09/15 04:06:06;;;;;;;3.92;1.20;;;;;;;18.48;63.00;100877.06;6151682;23;20017;-37
2022/09/15 04:08:32;;;;;;;3.78;1.20;;;;;;;18.53;63.22;100874.38;6166751;23;20519;-37
2022/09/15 04:10:59;;;;;;;3.97;1.30;;;;;;;18.57;62.89;100878.72;6166713;23;20058;-39
2022/09/15 04:13:24;;;;;;;2.92;1.00;;;;;;;18.67;62.52;100882.03;6163955;23;20059;-37
2022/09/15 04:16:00;;;;;;;2.90;1.10;;;;;;;18.73;62.16;100874.84;6169810;23;20347;-37
2022/09/15 04:18:27;;;;;;;4.90;1.30;;;;;;;18.71;63.04;100875.81;6161777;23;20119;-36
2022/09/15 04:20:52;;;;;;;3.05;1.25;;;;;;;18.73;62.87;100882.78;6163596;23;20028;-38
2022/09/15 04:23:17;;;;;;;2.90;1.20;;;;;;;18.55;61.87;100885.78;6165946;23;20969;-45
2022/09/15 04:25:43;;;;;;;5.47;1.50;;;;;;;18.72;61.96;100880.19;6169433;23;20019;-37
2022/09/15 04:28:08;;;;;;;4.50;1.20;;;;;;;18.77;62.04;100883.59;6162957;23;20554;-39
2022/09/15 04:30:35;;;;;;;2.65;1.15;;;;;;;18.72;61.38;100885.47;6168009;23;20028;-37
2022/09/15 04:33:07;;;;;;;5.97;1.52;;;;;;;18.75;60.40;100875.72;6143073;23;20371;-40
2022/09/15 04:35:32;;;;;;;5.53;1.38;;;;;;;18.77;59.33;100880.97;6159470;23;20039;-38
2022/09/15 04:37:58;;;;;;;3.97;1.00;;;;;;;18.79;58.89;100872.09;6175876;23;20044;-38
2022/09/15 04:40:24;;;;;;;1.95;1.17;;;;;;;18.83;58.74;100880.84;6164209;23;20605;-38
2022/09/15 04:42:50;;;;;;;2.90;1.30;;;;;;;18.86;58.89;100879.00;6166719;23;20083;-38
2022/09/15 04:45:15;;;;;;;5.63;1.50;;;;;;;18.85;59.27;100887.81;6165860;23;20008;-38
2022/09/15 04:47:41;;;;;;;5.20;1.30;;;;;;;18.83;58.65;100876.44;6159975;23;20021;-38
2022/09/15 04:50:07;;;;;;;4.55;1.40;;;;;;;18.86;58.44;100878.13;6145905;23;20043;-38
2022/09/15 04:52:33;;;;;;;2.95;1.20;;;;;;;18.92;58.36;100878.88;6163362;23;20110;-37
2022/09/15 04:54:58;;;;;;;5.45;1.13;;;;;;;19.00;58.66;100876.94;6169912;23;20229;-39
2022/09/15 04:57:24;;;;;;;3.92;1.40;;;;;;;18.99;58.56;100864.63;6171478;23;20402;-38
2022/09/15 04:59:49;;;;;;;4.80;1.23;;;;;;;18.98;58.12;100868.19;6168901;23;20348;-37
2022/09/15 05:02:14;;;;;;;3.83;1.10;;;;;;;19.02;58.09;100866.34;6164605;23;20455;-38
2022/09/15 05:04:40;;;;;;;4.20;1.20;;;;;;;19.00;58.31;100865.50;6141572;23;20918;-38
2022/09/15 05:07:05;;;;;;;2.83;1.20;;;;;;;18.85;57.92;100869.31;6164483;23;20019;-39
2022/09/15 05:09:30;;;;;;;3.97;1.00;;;;;;;18.89;56.78;100867.50;6172888;23;20012;-38
2022/09/15 05:11:56;;;;;;;4.30;1.30;;;;;;;18.91;57.30;100865.69;6166171;23;20023;-38
2022/09/15 05:14:22;;;;;;;3.63;1.20;;;;;;;18.94;57.41;100860.34;6154845;23;20691;-38
2022/09/15 05:16:47;;;;;;;5.60;1.20;;;;;;;18.44;57.96;100866.59;6163935;23;20009;-38
2022/09/15 05:19:12;;;;;;;5.32;1.10;;;;;;;18.74;57.20;100859.88;6172594;23;20004;-40
2022/09/15 05:21:38;;;;;;;3.95;1.20;;;;;;;18.67;58.00;100855.63;6162788;23;20021;-39
2022/09/15 05:24:06;;;;;;;3.33;1.05;;;;;;;18.64;58.22;100859.22;6159276;23;20376;-38
2022/09/15 05:26:32;;;;;;;3.65;1.13;;;;;;;18.53;58.24;100869.09;6164364;23;20522;-38
2022/09/15 05:28:58;;;;;;;5.05;1.10;;;;;;;18.57;58.25;100866.38;6160695;23;20095;-38
2022/09/15 05:31:26;;;;;;;5.13;1.30;;;;;;;18.57;58.77;100862.88;6164236;23;20019;-38
2022/09/15 05:33:52;;;;;;;4.68;1.15;;;;;;;18.69;58.26;100870.56;6162823;23;20036;-38
2022/09/15 05:36:20;;;;;;;5.30;1.10;;;;;;;18.78;58.52;100872.16;6153356;23;20470;-38
2022/09/15 05:38:45;;;;;;;3.03;1.10;;;;;;;18.87;58.23;100871.94;6164681;23;20027;-39
2022/09/15 05:41:16;;;;;;;4.28;1.13;;;;;;;18.89;58.66;100868.38;6170821;23;20020;-39
2022/09/15 05:43:43;;;;;;;3.05;1.25;;;;;;;18.89;59.11;100870.16;6173233;23;20008;-39
2022/09/15 05:46:16;;;;;;;5.05;1.20;;;;;;;18.91;58.92;100874.47;6159665;23;20013;-38
2022/09/15 05:48:42;;;;;;;5.90;1.40;;;;;;;18.95;59.13;100870.91;6172133;23;20008;-39
2022/09/15 05:51:07;;;;;;;12.43;3.45;;;;;;;18.87;60.17;100874.59;6163736;23;20483;-39
2022/09/15 05:53:34;;;;;;;16.85;4.30;;;;;;;18.98;60.30;100877.88;6167354;23;20043;-37
2022/09/15 05:56:02;;;;;;;12.38;3.80;;;;;;;19.04;59.59;100890.94;6158863;23;20032;-38
2022/09/15 05:58:27;;;;;;;11.90;2.70;;;;;;;19.15;59.29;100886.31;6155169;23;20005;-38
2022/09/15 06:00:53;;;;;;;12.63;3.05;;;;;;;19.19;59.34;100881.84;6157037;23;20340;-36
2022/09/15 06:03:19;;;;;;;7.82;2.38;;;;;;;19.27;59.26;100885.19;6167714;23;20452;-37
2022/09/15 06:05:45;;;;;;;6.65;1.90;;;;;;;19.35;59.04;100891.16;6160391;23;20674;-38
2022/09/15 06:08:11;;;;;;;6.43;1.60;;;;;;;19.37;59.32;100889.34;6159663;23;20016;-40
2022/09/15 06:10:37;;;;;;;4.65;1.75;;;;;;;19.40;59.74;100891.91;6162656;23;20103;-37
2022/09/15 06:13:03;;;;;;;6.80;1.67;;;;;;;19.33;60.46;100890.34;6169070;23;20012;-37
2022/09/15 06:15:28;;;;;;;5.53;1.80;;;;;;;19.28;60.83;100890.41;6162378;23;20773;-37
2022/09/15 06:17:53;;;;;;;7.78;2.55;;;;;;;19.26;61.04;100892.25;6170010;23;20012;-37
2022/09/15 06:20:20;;;;;;;8.52;2.20;;;;;;;19.27;60.90;100893.97;6166527;23;20013;-37
2022/09/15 06:22:45;;;;;;;6.40;2.10;;;;;;;19.37;60.84;100898.16;6165697;23;20084;-38
2022/09/15 06:25:12;;;;;;;7.30;2.03;;;;;;;19.40;61.21;100905.13;6168194;23;20037;-38
2022/09/15 06:27:38;;;;;;;6.78;1.63;;;;;;;19.43;61.15;100898.03;6171583;23;20730;-36
2022/09/15 06:30:07;;;;;;;5.63;1.58;;;;;;;19.46;61.21;100905.03;6162850;23;20017;-38
2022/09/15 06:32:33;;;;;;;5.68;1.77;;;;;;;19.47;61.13;100916.47;6165353;23;20527;-37
2022/09/15 06:34:59;;;;;;;10.43;1.80;;;;;;;19.29;60.83;100907.16;6162063;23;20115;-37
2022/09/15 06:37:24;;;;;;;4.63;1.67;;;;;;;19.50;60.23;100911.16;6171060;23;20081;-38
2022/09/15 06:39:50;;;;;;;7.65;1.73;;;;;;;19.62;59.93;100910.88;6169123;23;20015;-38
2022/09/15 06:42:15;;;;;;;5.88;1.50;;;;;;;19.72;60.00;100915.91;6163295;23;20013;-38
2022/09/15 06:44:41;;;;;;;7.80;1.50;;;;;;;19.80;59.63;100911.31;6165679;23;20013;-37
2022/09/15 06:47:06;;;;;;;7.38;1.40;;;;;;;19.94;59.49;100915.41;6172933;23;20009;-37
2022/09/15 06:49:32;;;;;;;3.83;1.30;;;;;;;20.01;59.93;100916.97;6167982;23;20008;-37
2022/09/15 06:51:57;;;;;;;3.58;1.10;;;;;;;20.14;59.43;100919.28;6169802;23;20012;-38
2022/09/15 06:54:23;;;;;;;3.45;1.33;;;;;;;20.29;58.51;100925.97;6157022;23;20362;-37
2022/09/15 06:56:48;;;;;;;7.05;1.52;;;;;;;20.15;55.80;100926.31;6169702;23;20013;-38
2022/09/15 06:59:15;;;;;;;6.95;1.30;;;;;;;20.27;55.43;100925.13;6162684;23;20017;-38
2022/09/15 07:01:41;;;;;;;3.70;1.33;;;;;;;20.45;56.51;100929.97;6168524;23;20012;-38
2022/09/15 07:04:09;;;;;;;5.95;1.40;;;;;;;20.30;55.62;100934.78;6166085;23;20756;-39
2022/09/15 07:06:36;;;;;;;6.72;1.50;;;;;;;20.17;56.64;100937.75;6157938;23;20428;-38
2022/09/15 07:09:03;;;;;;;9.45;1.55;;;;;;;20.41;56.26;100943.34;6172934;23;20012;-38
2022/09/15 07:11:34;;;;;;;11.48;1.60;;;;;;;20.29;56.48;100943.63;6167088;23;20013;-38
2022/09/15 07:13:59;;;;;;;7.07;1.35;;;;;;;20.36;56.99;100956.72;6169537;23;20466;-37
2022/09/15 07:16:25;;;;;;;7.90;1.30;;;;;;;20.00;58.36;100962.88;6155274;22;20658;-39
2022/09/15 07:18:53;;;;;;;8.25;1.40;;;;;;;19.86;60.88;100968.50;6164693;23;20004;-39
2022/09/15 07:21:19;;;;;;;6.93;1.35;;;;;;;19.16;63.98;100979.69;6163822;23;20439;-39
2022/09/15 07:23:46;;;;;;;10.68;1.88;;;;;;;18.98;65.34;100978.28;6135138;23;20534;-38
2022/09/15 07:26:24;;;;;;;7.68;1.27;;;;;;;19.14;65.19;100976.22;6148336;23;20104;-39
2022/09/15 07:28:54;;;;;;;5.95;1.52;;;;;;;19.47;64.78;100972.00;6152558;23;20642;-38
2022/09/15 07:31:22;;;;;;;6.93;1.50;;;;;;;19.58;64.52;100967.38;6163549;23;20044;-39
2022/09/15 07:33:48;;;;;;;5.63;1.55;;;;;;;19.75;63.28;100966.09;6161103;23;20077;-38
2022/09/15 07:36:13;;;;;;;10.60;1.55;;;;;;;19.87;62.27;100970.25;6147908;23;20043;-41
2022/09/15 07:38:42;;;;;;;4.90;1.10;;;;;;;20.02;61.87;100975.16;6166716;23;20088;-39
2022/09/15 07:41:11;;;;;;;7.13;1.42;;;;;;;19.98;62.95;100968.19;6108031;23;20880;-39
2022/09/15 07:43:37;;;;;;;6.03;1.30;;;;;;;19.89;63.76;100976.34;6160850;23;20017;-39
2022/09/15 07:46:03;;;;;;;11.30;1.55;;;;;;;20.03;60.49;100981.31;6146403;23;20466;-38
2022/09/15 07:48:29;;;;;;;5.05;1.30;;;;;;;20.04;61.22;100980.41;6171576;23;20009;-40
2022/09/15 07:50:55;;;;;;;6.22;1.40;;;;;;;19.88;61.71;100981.69;6164402;23;20012;-38
2022/09/15 07:53:21;;;;;;;6.30;1.20;;;;;;;19.85;59.73;100986.13;6162771;23;20049;-39
2022/09/15 07:55:57;;;;;;;5.32;1.13;;;;;;;19.65;60.80;100984.84;6171372;23;20647;-45
2022/09/15 07:58:24;;;;;;;4.53;0.90;;;;;;;19.92;57.73;100984.22;6162655;23;20503;-38
2022/09/15 08:00:49;;;;;;;3.30;1.08;;;;;;;20.45;58.62;100984.72;6172517;22;20052;-38
2022/09/15 08:03:15;;;;;;;5.30;1.10;;;;;;;20.41;55.59;100993.66;6173282;23;20100;-40
2022/09/15 08:05:43;;;;;;;3.38;1.00;;;;;;;20.20;58.27;101006.47;6157092;23;20426;-40
2022/09/15 08:08:09;;;;;;;5.15;1.20;;;;;;;20.40;57.57;101007.81;6161113;23;20391;-39
2022/09/15 08:10:38;;;;;;;8.55;1.50;;;;;;;20.14;56.25;101016.34;6155870;23;20013;-39
2022/09/15 08:13:04;;;;;;;8.40;1.20;;;;;;;20.35;56.26;101023.81;6169590;23;20013;-40
2022/09/15 08:15:29;;;;;;;9.15;1.48;;;;;;;20.03;58.59;101024.53;6164097;23;20010;-38
2022/09/15 08:17:55;;;;;;;4.05;1.10;;;;;;;20.21;56.54;101025.88;6157940;23;20020;-38
2022/09/15 08:20:21;;;;;;;6.45;1.20;;;;;;;20.38;57.12;101033.44;6157436;23;20019;-40
2022/09/15 08:22:47;;;;;;;9.75;1.13;;;;;;;19.56;56.77;101044.09;6168053;23;20035;-38
2022/09/15 08:25:12;;;;;;;5.72;1.10;;;;;;;19.87;56.99;101046.97;6157807;23;20343;-40
2022/09/15 08:27:38;;;;;;;4.95;0.93;;;;;;;20.36;55.94;101044.09;6166404;23;20796;-39
2022/09/15 08:30:04;;;;;;;5.40;1.00;;;;;;;20.20;55.73;101046.19;6159242;23;20527;-39
2022/09/15 08:32:30;;;;;;;3.97;1.00;;;;;;;19.85;54.39;101052.28;6171627;23;20024;-37
2022/09/15 08:34:55;;;;;;;3.30;1.00;;;;;;;20.53;55.37;101049.84;6166789;23;20024;-38
2022/09/15 08:37:21;;;;;;;4.78;1.08;;;;;;;20.00;54.37;101060.81;6164470;23;20009;-38
2022/09/15 08:39:47;;;;;;;6.30;1.05;;;;;;;20.42;52.35;101053.66;6138034;23;20047;-36
2022/09/15 08:42:22;;;;;;;8.30;1.00;;;;;;;20.31;50.44;101059.16;6173615;23;20008;-37
2022/09/15 08:44:55;;;;;;;5.57;1.10;;;;;;;20.80;51.38;101058.84;6170952;23;20436;-37
2022/09/15 08:47:35;;;;;;;5.70;1.27;;;;;;;20.81;51.62;101065.91;6149353;22;20542;-39
2022/09/15 08:50:29;;;;;;;3.08;1.00;;;;;;;20.84;50.84;101059.66;6164806;23;20767;-37
2022/09/15 08:52:56;;;;;;;2.03;0.90;;;;;;;20.78;52.38;101062.47;6153205;23;20452;-38
2022/09/15 08:55:40;;;;;;;5.50;1.02;;;;;;;20.82;52.89;101065.00;6166244;23;20055;-37
2022/09/15 08:58:19;;;;;;;4.78;1.00;;;;;;;20.82;53.57;101067.66;6153890;23;20260;-38
2022/09/15 09:00:47;;;;;;;4.15;1.00;;;;;;;21.22;52.59;101066.66;6167246;23;20023;-37
2022/09/15 09:03:31;;;;;;;4.05;1.08;;;;;;;21.14;53.08;101065.94;6156169;23;20849;-38
2022/09/15 09:06:27;;;;;;;6.25;1.08;;;;;;;21.13;51.65;101066.84;6153918;23;20023;-37
2022/09/15 09:09:14;;;;;;;4.32;1.00;;;;;;;21.17;52.85;101066.75;6167577;23;20012;-37
2022/09/15 09:12:16;;;;;;;4.78;1.00;;;;;;;21.24;50.56;101063.03;6160199;23;20098;-37
2022/09/15 09:14:51;;;;;;;4.00;1.00;;;;;;;21.36;51.70;101069.75;6161277;23;20016;-37
2022/09/15 09:17:50;;;;;;;7.07;1.20;;;;;;;21.25;49.75;101067.41;6158664;23;20733;-36
2022/09/15 09:20:24;;;;;;;7.43;1.33;;;;;;;21.24;50.36;101070.09;6152233;23;20012;-37
2022/09/15 09:22:53;;;;;;;4.28;1.10;;;;;;;21.34;50.76;101061.88;6161689;23;20031;-37
2022/09/15 09:25:21;;;;;;;3.67;0.90;;;;;;;21.79;50.51;101062.31;6149732;23;20012;-37
2022/09/15 09:27:53;;;;;;;4.60;1.08;;;;;;;21.60;49.42;101063.75;6170043;23;20008;-36
2022/09/15 09:30:21;;;;;;;5.38;1.05;;;;;;;21.69;50.76;101059.97;6155541;23;20017;-39
2022/09/15 09:33:29;;;;;;;7.45;1.10;;;;;;;21.28;49.46;101055.88;6168768;23;20015;-38
2022/09/15 09:35:58;;;;;;;4.55;1.10;;;;;;;21.85;49.26;101050.63;6162343;23;20096;-38
2022/09/15 09:38:45;;;;;;;5.53;1.05;;;;;;;21.72;44.83;101047.47;6166056;23;20012;-39
2022/09/15 09:41:21;;;;;;;4.03;1.08;;;;;;;21.60;43.64;101044.31;6159839;23;20092;-40
2022/09/15 09:43:48;;;;;;;4.40;0.90;;;;;;;21.55;44.14;101047.09;6161880;23;20503;-38
2022/09/15 09:46:15;;;;;;;5.47;0.90;;;;;;;21.92;43.07;101048.66;6171451;23;20031;-43
2022/09/15 09:49:00;;;;;;;7.03;0.95;;;;;;;22.06;41.99;101044.72;6161367;23;20477;-38
2022/09/15 09:51:37;;;;;;;5.68;0.98;;;;;;;22.21;41.51;101052.19;6158546;22;20012;-36
2022/09/15 09:54:11;;;;;;;7.13;0.90;;;;;;;21.84;41.66;101051.53;6149513;23;20460;-36
2022/09/15 09:56:37;;;;;;;3.90;0.90;;;;;;;21.68;41.25;101061.75;6174833;23;20039;-38
2022/09/15 09:59:03;;;;;;;7.57;1.00;;;;;;;22.11;40.04;101050.75;6162599;23;20013;-37
2022/09/15 10:01:30;;;;;;;4.55;1.15;;;;;;;21.56;41.69;101055.94;6167816;23;20348;-38
2022/09/15 10:04:18;;;;;;;6.70;1.02;;;;;;;21.42;41.65;101051.91;6116521;23;20821;-37
2022/09/15 10:06:45;;;;;;;4.55;1.00;;;;;;;21.93;41.05;101058.38;6166490;23;20355;-37
2022/09/15 10:09:18;;;;;;;3.45;0.98;;;;;;;22.72;41.20;101046.13;6171065;23;20428;-37
2022/09/15 10:11:46;;;;;;;5.03;1.20;;;;;;;22.47;39.92;101043.38;6159067;23;21165;-37
2022/09/15 10:14:38;;;;;;;5.72;1.27;;;;;;;23.23;40.17;101054.09;6164392;23;20012;-37
2022/09/15 10:17:15;;;;;;;2.83;0.93;;;;;;;22.66;39.01;101046.31;6154437;23;20013;-38
2022/09/15 10:19:53;;;;;;;3.28;0.98;;;;;;;22.46;38.47;101048.75;6171326;23;20161;-39
2022/09/15 10:22:29;;;;;;;2.72;1.00;;;;;;;21.90;37.72;101046.06;6166087;22;20028;-38
2022/09/15 10:24:55;;;;;;;3.33;0.80;;;;;;;22.42;37.68;101047.09;6166634;23;20107;-38
2022/09/15 10:27:34;;;;;;;2.42;0.90;;;;;;;22.62;37.08;101048.19;6157483;22;20009;-37
2022/09/15 10:30:12;;;;;;;4.90;1.00;;;;;;;22.10;36.79;101034.84;6159734;23;20354;-38
2022/09/15 10:32:38;;;;;;;4.65;1.08;;;;;;;21.92;37.51;101033.63;6160538;23;20017;-38
2022/09/15 10:35:12;;;;;;;4.63;1.00;;;;;;;22.04;37.35;101035.91;6162030;23;20792;-38
2022/09/15 10:37:44;;;;;;;8.15;1.00;;;;;;;22.17;38.17;101041.72;6169811;23;20104;-38
2022/09/15 10:40:32;;;;;;;7.03;1.30;;;;;;;22.45;38.13;101041.69;6163357;23;20012;-38
2022/09/15 10:43:10;;;;;;;3.25;1.00;;;;;;;22.32;38.49;101040.38;6160932;23;20012;-39
2022/09/15 10:45:43;;;;;;;7.30;1.00;;;;;;;21.94;39.43;101050.38;6163039;23;20103;-38
2022/09/15 10:48:40;;;;;;;4.45;1.17;;;;;;;22.19;39.52;101061.13;6156886;23;20020;-39
2022/09/15 10:51:45;;;;;;;4.78;1.00;;;;;;;22.17;38.99;101057.66;6167229;23;20016;-38
2022/09/15 10:54:23;;;;;;;4.22;1.15;;;;;;;22.14;38.55;101058.59;6159815;23;20449;-38
2022/09/15 10:56:55;;;;;;;3.90;1.00;;;;;;;22.11;38.50;101056.06;6169776;23;20005;-37
2022/09/15 10:59:21;;;;;;;4.25;0.90;;;;;;;22.22;38.03;101059.25;6156155;23;20335;-37
2022/09/15 11:02:01;;;;;;;5.18;1.10;;;;;;;21.73;40.36;101061.63;6162513;23;20475;-39
2022/09/15 11:04:51;;;;;;;2.75;0.90;;;;;;;22.13;40.52;101064.00;6155732;23;20151;-38
2022/09/15 11:07:34;;;;;;;5.28;1.02;;;;;;;22.12;39.86;101065.78;6168260;23;20044;-38
2022/09/15 11:10:04;;;;;;;3.50;1.10;;;;;;;22.18;39.12;101068.22;6152479;23;20008;-38
2022/09/15 11:12:59;;;;;;;5.75;1.08;;;;;;;22.09;38.77;101079.13;6172423;23;20056;-37
2022/09/15 11:15:46;;;;;;;7.15;1.17;;;;;;;21.52;38.82;101068.44;6165791;23;20447;-38
2022/09/15 11:18:30;;;;;;;5.63;1.33;;;;;;;22.10;39.60;101080.00;6173448;23;20047;-37
2022/09/15 11:21:25;;;;;;;6.00;1.15;;;;;;;21.35;41.22;101078.63;6167469;23;20069;-37
2022/09/15 11:24:22;;;;;;;4.88;1.30;;;;;;;21.85;40.68;101075.41;6146934;23;20067;-37
2022/09/15 11:27:10;;;;;;;7.47;1.20;;;;;;;22.09;41.09;101078.25;6168797;23;20005;-39
2022/09/15 11:30:01;;;;;;;3.97;1.10;;;;;;;22.23;40.49;101076.03;6167062;23;20308;-38
2022/09/15 11:32:33;;;;;;;5.15;1.13;;;;;;;22.32;39.27;101080.22;6160161;23;20014;-38
2022/09/15 11:35:36;;;;;;;4.97;1.02;;;;;;;21.97;38.55;101084.81;6161124;23;20112;-37
2022/09/15 11:38:14;;;;;;;5.47;1.10;;;;;;;21.80;38.89;101079.97;6152202;23;20542;-39
2022/09/15 11:41:14;;;;;;;5.38;1.25;;;;;;;21.65;40.59;101083.06;6167699;23;20383;-37
2022/09/15 11:43:44;;;;;;;4.05;1.30;;;;;;;22.39;39.63;101084.38;6138370;23;20024;-37